CheckWX is a tool to help pilots better visualize weather data.  It is not intended as a substitute for an official pre-flight weather briefing.

04:56:53 UTC

57C METAR
East Troy Municipal Airport
East Troy, Wisconsin, USA
Current

22 mins ago

K57C 290435Z AUTO 29007KT 10SM CLR M08/M16 A3011 RMK AO2 T10801162
Observed
Feb-29 @ 04:35 UTC
Wind
  • 290° at 7 KTS
Visibility
10 SM
Flight Rules
VFR
Cloud Levels
  • Clear skies
Temperature
-8°C / 18°F
Dewpoint
-16°C / 3°F
Humidity
53%
Altimeter
30.11" Hg
Pressure
1019.62 hPa
Previous

42 mins ago

K57C 290415Z AUTO 29008KT 10SM CLR M08/M16 A3011 RMK AO2 T10781160
Observed
Feb-29 @ 04:15 UTC
Wind
  • 290° at 8 KTS
Visibility
10 SM
Flight Rules
VFR
Cloud Levels
  • Clear skies
Temperature
-8°C / 18°F
Dewpoint
-16°C / 3°F
Humidity
53%
Altimeter
30.11" Hg
Pressure
1019.62 hPa
Previous

1 hour ago

K57C 290355Z AUTO 29008KT 10SM CLR M08/M16 A3011 RMK AO2 T10771158
Observed
Feb-29 @ 03:55 UTC
Wind
  • 290° at 8 KTS
Visibility
10 SM
Flight Rules
VFR
Cloud Levels
  • Clear skies
Temperature
-8°C / 18°F
Dewpoint
-16°C / 3°F
Humidity
53%
Altimeter
30.11" Hg
Pressure
1019.62 hPa